Time;durP1;ratioP1;P1;durP2;ratioP2;P2;SDS_P1;SDS_P2;PMS_P1;PMS_P2;Temp;Humidity;BMP_temperature;BMP_pressure;BME280_temperature;BME280_humidity;BME280_pressure;Samples;Min_cycle;Max_cycle;Signal;HPM_P1;HPM_P2
2022/06/07 00:02:16;;;;;;;11.15;3.38;;;12.50;99.90;;;;;;5135959;27;19915;-70
2022/06/07 00:04:42;;;;;;;11.10;3.90;;;12.40;99.90;;;;;;5136251;27;20043;-70
2022/06/07 00:07:09;;;;;;;11.02;3.83;;;12.50;99.90;;;;;;5116789;27;20139;-70
2022/06/07 00:09:36;;;;;;;9.32;4.13;;;12.40;99.90;;;;;;5117342;27;20399;-70
2022/06/07 00:12:02;;;;;;;6.40;3.30;;;12.40;99.90;;;;;;5149913;27;20042;-70
2022/06/07 00:14:28;;;;;;;8.05;3.72;;;12.50;99.90;;;;;;5137385;27;20149;-70
2022/06/07 00:16:56;;;;;;;9.05;3.70;;;12.50;99.90;;;;;;5154493;27;20483;-70
2022/06/07 00:19:22;;;;;;;;;;;12.50;99.90;;;;;;5156683;27;20117;-69
2022/06/07 00:21:47;;;;;;;6.30;3.38;;;12.40;99.90;;;;;;5156109;27;19919;-70
2022/06/07 00:24:13;;;;;;;8.20;3.25;;;12.50;99.90;;;;;;5137405;27;20039;-71
2022/06/07 00:26:39;;;;;;;;;;;12.60;99.90;;;;;;5133064;27;20049;-71
2022/06/07 00:29:08;;;;;;;9.85;3.33;;;12.40;99.90;;;;;;5155346;27;19918;-71
2022/06/07 00:31:35;;;;;;;9.38;3.72;;;12.40;99.90;;;;;;5137892;27;20046;-70
2022/06/07 00:34:04;;;;;;;10.93;4.20;;;12.50;99.90;;;;;;5136682;27;20103;-71
2022/06/07 00:36:29;;;;;;;11.70;4.25;;;12.50;99.90;;;;;;5139717;27;20383;-71
2022/06/07 00:38:55;;;;;;;;;;;12.50;99.90;;;;;;5117434;27;20105;-71
2022/06/07 00:41:21;;;;;;;7.40;3.60;;;12.50;99.90;;;;;;5137085;27;19919;-71
2022/06/07 00:44:17;;;;;;;6.88;3.80;;;12.50;99.90;;;;;;5125698;27;20046;-70
2022/06/07 00:46:46;;;;;;;8.85;3.85;;;12.50;99.90;;;;;;5116848;27;20055;-71
2022/06/07 00:49:15;;;;;;;8.63;4.22;;;12.60;99.90;;;;;;5115996;27;20502;-71
2022/06/07 00:51:41;;;;;;;10.95;3.40;;;12.60;99.90;;;;;;5136103;27;20070;-71
2022/06/07 00:54:07;;;;;;;10.77;4.38;;;12.60;99.90;;;;;;5116871;27;20035;-70
2022/06/07 00:56:33;;;;;;;;;;;12.90;99.90;;;;;;5116570;27;20510;-70
2022/06/07 00:59:03;;;;;;;9.20;3.80;;;12.60;99.90;;;;;;5131392;27;19923;-71
2022/06/07 01:01:30;;;;;;;11.15;3.95;;;12.60;99.90;;;;;;5136831;27;20084;-71
2022/06/07 01:03:56;;;;;;;11.40;4.13;;;12.70;99.90;;;;;;5155083;27;20066;-71
2022/06/07 01:11:50;;;;;;;8.48;3.83;;;12.90;99.90;;;;;;5137075;27;20058;-70
2022/06/07 01:14:16;;;;;;;;;;;12.70;99.90;;;;;;5155640;27;20088;-70
2022/06/07 01:16:42;;;;;;;9.48;3.72;;;12.70;99.90;;;;;;5154913;27;20430;-71
2022/06/07 01:19:07;;;;;;;;;;;12.70;99.90;;;;;;5137225;27;20046;-71
2022/06/07 01:21:34;;;;;;;11.15;4.13;;;12.60;99.90;;;;;;5153430;27;20450;-71
2022/06/07 01:24:00;;;;;;;9.02;4.20;;;12.60;99.90;;;;;;5154090;27;20070;-71
2022/06/07 01:26:26;;;;;;;;;;;12.60;99.90;;;;;;5155527;27;20077;-71
2022/06/07 01:28:51;;;;;;;9.25;3.75;;;12.50;99.90;;;;;;5155439;27;20006;-72
2022/06/07 01:31:17;;;;;;;;;;;12.40;99.90;;;;;;5154535;27;20042;-71
2022/06/07 01:33:43;;;;;;;12.25;3.78;;;12.30;99.90;;;;;;5155257;27;19923;-71
2022/06/07 01:36:15;;;;;;;10.75;3.58;;;12.20;99.90;;;;;;5149759;27;20039;-72
2022/06/07 01:38:43;;;;;;;9.02;4.10;;;12.20;99.90;;;;;;5133254;27;20042;-71
2022/06/07 01:43:58;;;;;;;8.97;3.87;;;12.10;99.90;;;;;;5115908;27;20043;-71
2022/06/07 01:46:23;;;;;;;8.57;4.05;;;12.00;99.90;;;;;;5114186;27;20086;-72
2022/06/07 01:48:49;;;;;;;;;;;11.80;99.90;;;;;;5115882;27;20078;-72
2022/06/07 01:51:16;;;;;;;10.13;4.30;;;11.90;99.90;;;;;;5116092;27;19959;-72
2022/06/07 01:53:42;;;;;;;15.48;4.63;;;12.10;99.90;;;;;;5133445;27;20043;-72
2022/06/07 01:56:10;;;;;;;;;;;11.90;99.90;;;;;;5116232;27;20049;-71
2022/06/07 01:58:37;;;;;;;9.82;3.53;;;11.90;99.90;;;;;;5132959;27;19919;-71
2022/06/07 02:01:03;;;;;;;13.00;3.42;;;12.00;99.90;;;;;;5115221;27;20083;-72
2022/06/07 02:03:28;;;;;;;;;;;11.80;99.90;;;;;;5116751;27;20127;-71
2022/06/07 02:05:56;;;;;;;9.30;3.60;;;12.00;99.90;;;;;;5133045;27;20477;-72
2022/06/07 02:08:22;;;;;;;10.02;3.33;;;11.90;99.90;;;;;;5114766;27;20122;-72
2022/06/07 02:10:48;;;;;;;10.70;4.05;;;11.80;99.90;;;;;;5115160;27;20039;-71
2022/06/07 02:13:13;;;;;;;;;;;11.80;99.90;;;;;;5134291;27;20050;-71
2022/06/07 02:15:39;;;;;;;11.85;3.40;;;11.80;99.90;;;;;;5133691;27;19919;-71
2022/06/07 02:18:05;;;;;;;;;;;11.80;99.90;;;;;;5115366;27;20043;-71
2022/06/07 02:20:30;;;;;;;10.80;3.88;;;11.90;99.90;;;;;;5132941;27;20387;-71
2022/06/07 02:22:56;;;;;;;9.40;3.53;;;11.80;99.90;;;;;;5133906;27;20126;-71
2022/06/07 02:25:21;;;;;;;;;;;11.70;99.90;;;;;;5115064;27;20077;-71
2022/06/07 02:27:47;;;;;;;15.90;3.67;;;11.80;99.90;;;;;;5115233;27;20355;-71
2022/06/07 02:30:13;;;;;;;;;;;11.90;99.90;;;;;;5133520;27;20386;-71
2022/06/07 02:32:39;;;;;;;10.88;3.35;;;11.90;99.90;;;;;;5133343;27;19923;-71
2022/06/07 02:35:05;;;;;;;12.90;3.83;;;11.80;99.90;;;;;;5113970;27;20090;-71
2022/06/07 02:37:33;;;;;;;8.63;3.90;;;11.80;99.90;;;;;;5132900;27;20530;-71
2022/06/07 02:39:59;;;;;;;11.40;3.95;;;12.10;99.90;;;;;;5115030;27;20046;-71
2022/06/07 02:42:26;;;;;;;;;;;11.90;99.90;;;;;;5114735;27;20047;-71
2022/06/07 02:44:51;;;;;;;9.88;4.03;;;11.90;99.90;;;;;;5114443;27;19974;-70
2022/06/07 02:47:17;;;;;;;11.57;3.83;;;11.90;99.90;;;;;;5134049;27;20089;-71
2022/06/07 02:49:43;;;;;;;;;;;11.80;99.90;;;;;;5133037;27;20122;-71
2022/06/07 02:52:08;;;;;;;11.68;4.22;;;12.00;99.90;;;;;;5114191;28;19923;-71
2022/06/07 02:54:34;;;;;;;;;;;12.00;99.90;;;;;;5133054;27;20055;-71
2022/06/07 02:57:00;;;;;;;11.38;3.80;;;12.10;99.90;;;;;;5131953;27;19942;-71
2022/06/07 02:59:26;;;;;;;;;;;11.90;99.90;;;;;;5133174;27;20118;-71
2022/06/07 03:01:52;;;;;;;10.95;3.95;;;11.80;99.90;;;;;;5113828;28;20052;-70
2022/06/07 03:04:17;;;;;;;8.52;3.45;;;11.80;99.90;;;;;;5144775;27;20045;-71
2022/06/07 03:06:43;;;;;;;10.15;3.58;;;11.80;99.90;;;;;;5135374;27;20155;-71
2022/06/07 03:09:09;;;;;;;20.08;3.95;;;11.70;99.90;;;;;;5152353;27;20035;-71
2022/06/07 03:11:34;;;;;;;;;;;11.70;99.90;;;;;;5135139;27;20061;-71
2022/06/07 03:14:00;;;;;;;10.13;3.33;;;12.00;99.90;;;;;;5153263;27;19927;-72
2022/06/07 03:16:26;;;;;;;8.80;3.72;;;11.70;99.90;;;;;;5149813;27;20107;-71
2022/06/07 03:18:51;;;;;;;;;;;11.60;99.90;;;;;;5132551;28;20482;-71
2022/06/07 03:21:17;;;;;;;11.15;4.10;;;11.50;99.90;;;;;;5133098;27;19945;-71
2022/06/07 03:23:42;;;;;;;11.43;3.58;;;11.50;99.90;;;;;;5152687;27;20043;-70
2022/06/07 03:26:09;;;;;;;;;;;11.70;99.90;;;;;;5134533;27;20057;-71
2022/06/07 03:28:35;;;;;;;8.15;3.45;;;11.50;99.90;;;;;;5152909;27;20328;-70
2022/06/07 03:31:06;;;;;;;;;;;11.70;99.90;;;;;;5134608;27;20039;-72
2022/06/07 03:33:34;;;;;;;8.15;3.50;;;11.50;99.90;;;;;;5132472;27;19918;-71
2022/06/07 03:36:20;;;;;;;10.07;3.92;;;11.50;99.90;;;;;;5134448;27;20453;-72
2022/06/07 03:38:47;;;;;;;15.20;4.28;;;11.40;99.90;;;;;;5151074;27;20478;-72
2022/06/07 03:41:21;;;;;;;13.80;4.63;;;11.50;99.90;;;;;;5132331;27;20049;-73
2022/06/07 03:43:47;;;;;;;14.27;4.57;;;11.50;99.90;;;;;;5132563;27;20078;-73
2022/06/07 03:46:14;;;;;;;;;;;11.80;99.90;;;;;;5149454;27;20129;-72
2022/06/07 03:48:44;;;;;;;12.80;3.88;;;11.50;99.90;;;;;;5130448;27;19964;-72
2022/06/07 03:51:11;;;;;;;11.43;4.40;;;11.50;99.90;;;;;;5111543;28;20039;-73
2022/06/07 03:53:41;;;;;;;12.00;4.15;;;11.50;99.90;;;;;;5112051;28;20134;-73
2022/06/07 03:56:06;;;;;;;9.88;3.88;;;11.40;99.90;;;;;;5131725;28;20570;-73
2022/06/07 03:58:37;;;;;;;8.55;3.78;;;11.50;99.90;;;;;;5113416;28;20038;-73
2022/06/07 04:01:03;;;;;;;8.73;3.40;;;11.60;99.90;;;;;;5134768;27;20477;-72
2022/06/07 04:03:29;;;;;;;;;;;11.60;99.90;;;;;;5136681;27;20067;-73
2022/06/07 04:05:54;;;;;;;8.45;3.08;;;11.60;99.90;;;;;;5117016;27;19926;-73
2022/06/07 04:08:21;;;;;;;;;;;11.70;99.90;;;;;;5136000;27;20043;-73
2022/06/07 04:10:55;;;;;;;9.43;3.25;;;11.60;99.90;;;;;;5117970;27;20367;-73
2022/06/07 04:13:23;;;;;;;8.10;3.17;;;11.60;99.90;;;;;;5134869;27;20039;-73
2022/06/07 04:15:49;;;;;;;9.45;3.33;;;11.70;99.90;;;;;;5116975;27;20054;-72
2022/06/07 04:18:15;;;;;;;;;;;11.70;99.90;;;;;;5153477;27;20039;-71
2022/06/07 04:20:41;;;;;;;4.68;1.85;;;11.60;99.90;;;;;;5155889;27;19919;-73
2022/06/07 04:23:07;;;;;;;;;;;11.70;99.90;;;;;;5156543;27;20043;-73
2022/06/07 04:25:37;;;;;;;5.55;2.10;;;11.60;99.90;;;;;;5138003;27;20420;-73
2022/06/07 04:28:03;;;;;;;3.90;1.40;;;11.60;99.90;;;;;;5136790;27;20034;-72
2022/06/07 04:30:30;;;;;;;3.80;1.60;;;11.50;99.90;;;;;;5156199;27;20073;-73
2022/06/07 04:32:56;;;;;;;6.03;1.48;;;11.20;99.90;;;;;;5135983;27;20200;-73
2022/06/07 04:35:21;;;;;;;;;;;11.20;99.90;;;;;;5137106;27;20066;-72
2022/06/07 04:37:48;;;;;;;4.88;1.75;;;11.20;99.90;;;;;;5137452;27;19918;-73
2022/06/07 04:40:15;;;;;;;4.25;1.90;;;11.30;99.90;;;;;;5151493;27;20035;-73
2022/06/07 04:42:41;;;;;;;9.05;1.92;;;11.20;99.90;;;;;;5135199;27;20065;-73
2022/06/07 04:45:09;;;;;;;10.10;1.90;;;11.30;99.90;;;;;;5116599;27;20058;-72
2022/06/07 04:47:36;;;;;;;7.50;1.75;;;11.30;99.90;;;;;;5116327;27;20055;-72
2022/06/07 04:50:04;;;;;;;4.10;1.83;;;11.20;99.90;;;;;;5116520;27;20058;-73
2022/06/07 04:52:29;;;;;;;5.25;1.42;;;11.20;99.90;;;;;;5137113;27;20763;-74
2022/06/07 04:54:58;;;;;;;;;;;11.10;99.90;;;;;;5146353;27;20047;-74
2022/06/07 04:57:24;;;;;;;4.95;1.65;;;11.10;99.90;;;;;;5116450;27;20405;-71
2022/06/07 04:59:49;;;;;;;;;;;11.20;99.90;;;;;;5116591;27;20047;-68
2022/06/07 05:02:15;;;;;;;8.23;1.80;;;12.20;99.90;;;;;;5116702;27;19926;-73
2022/06/07 05:04:41;;;;;;;6.75;1.60;;;11.20;99.90;;;;;;5146575;27;20038;-74
2022/06/07 05:07:06;;;;;;;;;;;11.50;99.90;;;;;;5116672;27;20055;-81
2022/06/07 05:09:32;;;;;;;11.32;1.90;;;11.40;99.90;;;;;;5134166;27;20354;-73
2022/06/07 05:11:58;;;;;;;9.23;2.13;;;11.20;99.90;;;;;;5134741;27;20047;-73
2022/06/07 05:14:24;;;;;;;;;;;11.20;99.90;;;;;;5133894;27;20039;-74
2022/06/07 05:16:50;;;;;;;8.82;1.65;;;11.30;99.90;;;;;;5136243;27;19926;-76
2022/06/07 05:19:18;;;;;;;8.90;2.50;;;11.30;99.90;;;;;;5136482;27;20474;-77
2022/06/07 05:21:44;;;;;;;9.05;2.10;;;11.30;99.90;;;;;;5136728;27;20054;-73
2022/06/07 05:24:10;;;;;;;;;;;11.30;99.90;;;;;;5135753;27;20044;-75
2022/06/07 05:26:49;;;;;;;8.27;2.40;;;11.40;99.90;;;;;;5155197;27;19922;-73
2022/06/07 05:29:23;;;;;;;8.55;1.98;;;11.50;99.90;;;;;;5148651;27;20038;-76
2022/06/07 05:31:49;;;;;;;9.30;2.00;;;11.50;99.90;;;;;;5134869;27;20099;-75
2022/06/07 05:34:15;;;;;;;5.35;1.90;;;11.50;99.90;;;;;;5115881;27;20031;-79
2022/06/07 05:36:41;;;;;;;;;;;11.60;99.90;;;;;;5135609;27;20039;-76
2022/06/07 05:39:07;;;;;;;6.50;2.25;;;11.60;99.90;;;;;;5116037;27;19945;-76
2022/06/07 05:41:33;;;;;;;7.45;2.38;;;11.60;99.90;;;;;;5115901;27;20179;-78
2022/06/07 05:43:59;;;;;;;8.57;1.77;;;11.60;99.90;;;;;;5115321;27;20150;-75
2022/06/07 05:46:25;;;;;;;;;;;11.70;99.90;;;;;;5116256;27;20482;-83
2022/06/07 05:48:51;;;;;;;4.30;1.80;;;11.70;99.90;;;;;;5115771;27;19962;-79
2022/06/07 05:51:16;;;;;;;;;;;11.70;99.90;;;;;;5115583;27;20039;-76
2022/06/07 05:53:45;;;;;;;8.32;2.22;;;11.70;99.90;;;;;;5114823;27;19919;-78
2022/06/07 05:56:15;;;;;;;;;;;11.80;99.90;;;;;;5134132;27;20054;-80
2022/06/07 05:58:40;;;;;;;7.90;1.67;;;11.90;99.90;;;;;;5114776;27;19955;-77
2022/06/07 06:01:07;;;;;;;;;;;12.00;99.90;;;;;;5115560;27;20446;-78
2022/06/07 06:03:33;;;;;;;10.50;2.10;;;12.00;99.90;;;;;;5115386;27;19972;-77
2022/06/07 06:05:58;;;;;;;;;;;12.10;99.90;;;;;;5147695;27;20431;-76
2022/06/07 06:11:18;;;;;;;6.10;1.80;;;12.10;99.90;;;;;;5153727;27;20050;-78
2022/06/07 06:13:44;;;;;;;6.97;2.22;;;12.30;99.90;;;;;;5134670;27;20042;-76
2022/06/07 06:16:14;;;;;;;;;;;12.10;99.90;;;;;;5152398;27;20113;-76
2022/06/07 06:18:47;;;;;;;12.52;2.50;;;12.10;99.90;;;;;;5134336;27;20382;-76
2022/06/07 06:21:13;;;;;;;11.00;2.42;;;12.10;99.90;;;;;;5153813;27;20501;-77
2022/06/07 06:23:39;;;;;;;9.63;2.20;;;12.10;99.90;;;;;;5134967;27;20505;-77
2022/06/07 06:26:08;;;;;;;;;;;12.20;99.90;;;;;;5139982;27;20122;-76
2022/06/07 06:28:34;;;;;;;7.20;2.15;;;12.20;99.90;;;;;;5114620;27;20009;-75
2022/06/07 06:31:06;;;;;;;6.25;1.70;;;12.20;99.90;;;;;;5133415;27;20043;-80
2022/06/07 06:33:37;;;;;;;10.85;1.80;;;12.30;99.90;;;;;;5114165;27;20051;-74
2022/06/07 06:36:04;;;;;;;8.52;2.00;;;12.30;99.90;;;;;;5133311;27;20035;-83
2022/06/07 06:38:31;;;;;;;5.10;1.35;;;12.30;99.90;;;;;;5132887;27;20114;-77
2022/06/07 06:40:57;;;;;;;7.80;1.83;;;12.30;99.90;;;;;;5133888;27;20047;-77
2022/06/07 06:43:22;;;;;;;;;;;12.30;99.90;;;;;;5114975;27;20444;-79
2022/06/07 06:45:48;;;;;;;6.03;1.65;;;12.30;99.90;;;;;;5114702;27;19930;-77
2022/06/07 06:48:14;;;;;;;;;;;12.30;99.90;;;;;;5114230;27;20051;-77
2022/06/07 06:50:40;;;;;;;5.80;1.30;;;12.20;99.90;;;;;;5114439;27;20011;-75
2022/06/07 06:53:06;;;;;;;;;;;12.20;99.90;;;;;;5138603;27;20076;-74
2022/06/07 06:55:33;;;;;;;7.40;1.50;;;12.20;99.90;;;;;;5121344;27;19919;-74
2022/06/07 06:57:59;;;;;;;6.35;1.73;;;12.10;99.90;;;;;;5134766;27;20534;-77
2022/06/07 07:00:26;;;;;;;;;;;12.10;99.90;;;;;;5154154;27;20170;-76
2022/06/07 07:02:53;;;;;;;4.63;1.23;;;12.10;99.90;;;;;;5152853;27;19919;-78
2022/06/07 07:05:19;;;;;;;6.13;1.20;;;12.10;99.90;;;;;;5138563;27;20047;-75
2022/06/07 07:07:46;;;;;;;5.43;1.92;;;12.20;99.90;;;;;;5114577;28;20045;-76
2022/06/07 07:10:13;;;;;;;5.50;1.30;;;12.50;99.90;;;;;;5116763;27;20488;-76
2022/06/07 07:12:39;;;;;;;7.20;1.58;;;12.40;99.90;;;;;;5116759;28;20047;-75
2022/06/07 07:15:13;;;;;;;7.13;1.50;;;12.40;99.90;;;;;;5112580;28;20050;-77
2022/06/07 07:17:46;;;;;;;6.75;1.33;;;12.40;99.90;;;;;;5132049;28;20039;-77
2022/06/07 07:20:12;;;;;;;6.60;1.52;;;12.60;99.90;;;;;;5114327;28;20096;-80
2022/06/07 07:22:37;;;;;;;;;;;12.70;99.90;;;;;;5132572;28;20043;-79
2022/06/07 07:25:05;;;;;;;7.75;1.70;;;12.80;99.90;;;;;;5132889;27;19919;-81
2022/06/07 07:27:31;;;;;;;5.20;1.75;;;12.90;99.90;;;;;;5111829;28;20502;-80
2022/06/07 07:29:58;;;;;;;8.27;1.77;;;13.10;99.90;;;;;;5129910;28;20039;-79
2022/06/07 07:32:24;;;;;;;5.63;1.77;;;13.10;99.90;;;;;;5112764;28;20455;-75
2022/06/07 07:34:50;;;;;;;9.25;1.75;;;13.30;99.90;;;;;;5132358;27;20082;-74
2022/06/07 07:37:17;;;;;;;;;;;13.40;99.90;;;;;;5135286;27;20127;-76
2022/06/07 07:39:45;;;;;;;8.75;1.90;;;13.40;99.90;;;;;;5117607;27;19919;-74
2022/06/07 07:42:11;;;;;;;6.53;1.95;;;13.70;99.90;;;;;;5119274;27;20406;-73
2022/06/07 07:44:38;;;;;;;;;;;13.70;99.90;;;;;;5117662;27;20134;-73
2022/06/07 07:47:03;;;;;;;3.70;1.40;;;13.80;99.90;;;;;;5117853;27;19919;-76
2022/06/07 07:49:30;;;;;;;8.00;1.80;;;13.90;99.90;;;;;;5136249;27;20389;-78
2022/06/07 07:51:56;;;;;;;7.68;2.25;;;14.00;99.90;;;;;;5136092;27;20087;-78
2022/06/07 07:54:23;;;;;;;5.80;1.52;;;14.00;99.90;;;;;;5117890;27;20051;-76
2022/06/07 07:56:55;;;;;;;5.53;1.58;;;14.10;99.90;;;;;;5155121;27;20054;-76
2022/06/07 07:59:21;;;;;;;9.05;1.80;;;13.90;99.90;;;;;;5156131;27;20038;-79
2022/06/07 08:01:53;;;;;;;7.88;1.92;;;14.00;99.90;;;;;;5157313;27;20130;-78
2022/06/07 08:04:19;;;;;;;9.77;1.63;;;13.90;99.90;;;;;;5155808;27;20883;-72
2022/06/07 08:06:45;;;;;;;13.23;1.77;;;13.90;99.90;;;;;;5157000;27;20042;-78
2022/06/07 08:09:11;;;;;;;8.18;2.20;;;13.90;99.90;;;;;;5156607;27;20447;-79
2022/06/07 08:11:39;;;;;;;7.82;1.70;;;13.80;99.90;;;;;;5154001;27;20030;-77
2022/06/07 08:14:08;;;;;;;6.75;1.90;;;13.90;99.90;;;;;;5156169;27;20547;-77
2022/06/07 08:16:35;;;;;;;8.38;1.63;;;13.80;99.90;;;;;;5146513;27;20039;-80
2022/06/07 08:19:01;;;;;;;5.95;1.60;;;13.60;99.90;;;;;;5134181;27;20095;-80
2022/06/07 08:21:27;;;;;;;10.63;2.05;;;13.50;99.90;;;;;;5138143;27;20039;-79
2022/06/07 08:23:55;;;;;;;8.13;1.77;;;13.40;99.90;;;;;;5138565;27;20034;-80
2022/06/07 08:26:23;;;;;;;6.18;1.80;;;13.30;99.90;;;;;;5149462;27;20390;-80
2022/06/07 08:28:53;;;;;;;7.97;1.88;;;13.20;99.90;;;;;;5135607;27;20039;-81
2022/06/07 08:31:23;;;;;;;7.05;1.70;;;13.10;99.90;;;;;;5116890;27;20051;-84
2022/06/07 08:39:18;;;;;;;8.07;2.10;;;13.10;99.90;;;;;;5136448;27;20046;-82
2022/06/07 08:42:08;;;;;;;7.80;2.10;;;13.10;99.90;;;;;;5149691;27;20075;-81
2022/06/07 08:44:48;;;;;;;7.55;2.10;;;13.20;99.90;;;;;;5116996;27;20083;-81
2022/06/07 08:47:30;;;;;;;7.38;1.60;;;13.30;99.90;;;;;;5114963;27;20084;-81
2022/06/07 08:49:59;;;;;;;8.80;1.65;;;13.50;99.90;;;;;;5117853;27;20054;-82
2022/06/07 08:52:33;;;;;;;6.63;1.80;;;13.60;99.90;;;;;;5116998;27;20614;-80
2022/06/07 08:55:01;;;;;;;7.97;1.70;;;13.60;99.90;;;;;;5117352;27;20039;-80
2022/06/07 08:57:36;;;;;;;7.70;1.88;;;13.60;99.90;;;;;;5135235;27;20502;-80
2022/06/07 09:00:29;;;;;;;9.70;2.17;;;13.80;99.90;;;;;;5116803;27;20432;-79
2022/06/07 09:03:41;;;;;;;11.18;2.42;;;14.00;99.90;;;;;;5116871;27;20047;-79
2022/06/07 09:06:25;;;;;;;8.30;2.08;;;14.40;99.90;;;;;;5079825;27;20090;-79
2022/06/07 09:08:55;;;;;;;11.30;2.08;;;14.60;99.90;;;;;;5116151;27;20128;-81
2022/06/07 09:12:09;;;;;;;5.57;1.80;;;14.80;99.90;;;;;;5117361;27;20043;-80
2022/06/07 09:14:42;;;;;;;4.88;1.67;;;14.80;99.90;;;;;;5115820;27;20043;-80
2022/06/07 09:17:13;;;;;;;7.93;1.92;;;14.70;99.90;;;;;;5117300;27;20402;-81
2022/06/07 09:19:40;;;;;;;7.32;1.90;;;14.50;99.90;;;;;;5134857;27;20111;-83
2022/06/07 09:22:25;;;;;;;6.53;1.73;;;14.40;99.90;;;;;;5134069;27;20051;-79
2022/06/07 09:25:15;;;;;;;7.13;1.88;;;14.20;99.90;;;;;;5140817;27;20038;-79
2022/06/07 09:27:42;;;;;;;5.97;2.10;;;14.20;99.90;;;;;;5136535;27;20447;-79
2022/06/07 09:30:25;;;;;;;7.10;1.77;;;14.10;99.90;;;;;;5135989;27;20039;-80
2022/06/07 09:32:51;;;;;;;8.98;2.17;;;14.10;99.90;;;;;;5155230;27;20849;-79
2022/06/07 09:35:38;;;;;;;8.20;2.22;;;14.20;99.90;;;;;;5134138;27;20118;-78
2022/06/07 09:38:38;;;;;;;6.78;2.10;;;14.10;99.90;;;;;;5115760;27;20047;-80
2022/06/07 09:44:21;;;;;;;8.40;1.83;;;14.30;99.90;;;;;;5115130;27;20452;-79
2022/06/07 09:46:48;;;;;;;;;;;14.40;99.90;;;;;;5116415;27;20090;-79
2022/06/07 09:49:34;;;;;;;4.57;1.50;;;14.40;99.90;;;;;;5115640;27;19919;-79
2022/06/07 09:52:25;;;;;;;6.15;1.42;;;14.80;99.90;;;;;;5134937;27;20050;-79
2022/06/07 09:55:14;;;;;;;4.88;1.58;;;14.70;99.90;;;;;;5136689;27;20053;-79
2022/06/07 09:57:42;;;;;;;6.57;1.52;;;14.80;99.90;;;;;;5097453;27;20061;-80
2022/06/07 10:00:26;;;;;;;7.15;1.60;;;14.90;99.90;;;;;;5136180;27;20070;-79
2022/06/07 10:03:08;;;;;;;8.35;2.03;;;14.90;99.90;;;;;;5154808;27;20046;-76
2022/06/07 10:05:47;;;;;;;6.53;1.58;;;14.90;99.90;;;;;;5126191;27;20047;-79
2022/06/07 10:08:23;;;;;;;7.63;1.63;;;15.00;99.90;;;;;;5133259;27;20474;-79
2022/06/07 10:10:54;;;;;;;8.55;1.70;;;15.10;99.90;;;;;;5127223;27;20427;-78
2022/06/07 10:13:33;;;;;;;6.35;1.40;;;15.40;99.90;;;;;;5133616;27;20055;-80
2022/06/07 10:16:10;;;;;;;4.63;1.55;;;15.70;99.90;;;;;;5135259;27;20061;-77
2022/06/07 10:18:48;;;;;;;4.15;1.48;;;15.80;99.90;;;;;;5132972;27;20136;-81
2022/06/07 10:21:19;;;;;;;4.18;1.33;;;15.80;99.90;;;;;;5127324;27;20042;-81
2022/06/07 10:24:13;;;;;;;3.65;1.42;;;15.80;99.90;;;;;;5133364;27;20436;-82
2022/06/07 10:27:11;;;;;;;5.40;1.50;;;15.70;99.90;;;;;;5114533;27;20039;-81
2022/06/07 10:29:57;;;;;;;5.50;1.50;;;15.80;99.90;;;;;;5115022;27;20047;-81
2022/06/07 10:32:38;;;;;;;5.38;1.20;;;15.80;99.90;;;;;;5132463;27;20091;-76
2022/06/07 10:35:10;;;;;;;4.50;1.35;;;15.90;99.90;;;;;;5133406;27;20043;-78
2022/06/07 10:37:54;;;;;;;5.35;1.33;;;15.80;99.90;;;;;;5115042;27;20050;-77
2022/06/07 10:40:37;;;;;;;7.03;1.65;;;15.70;99.90;;;;;;5114024;27;20490;-83
2022/06/07 10:43:18;;;;;;;7.53;1.60;;;15.90;99.90;;;;;;5114568;27;20047;-79
2022/06/07 10:45:45;;;;;;;6.47;1.70;;;16.80;99.90;;;;;;5115805;27;20054;-79
2022/06/07 10:48:24;;;;;;;4.57;1.30;;;17.30;99.90;;;;;;5113541;27;20055;-80
2022/06/07 10:54:17;;;;;;;5.00;1.60;;;17.60;99.90;;;;;;5088685;27;20414;-79
2022/06/07 10:56:55;;;;;;;5.07;1.27;;;17.70;99.90;;;;;;5133156;27;20094;-79
2022/06/07 10:59:22;;;;;;;4.43;1.38;;;17.60;99.90;;;;;;5114107;27;20054;-79
2022/06/07 11:01:52;;;;;;;3.13;1.02;;;17.30;99.90;;;;;;5129336;27;20046;-78
2022/06/07 11:10:14;;;;;;;3.10;1.42;;;16.90;99.90;;;;;;5141476;27;20046;-77
2022/06/07 11:12:47;;;;;;;5.28;1.08;;;16.80;99.90;;;;;;5139036;27;20046;-76
2022/06/07 11:15:37;;;;;;;5.10;1.13;;;16.80;99.90;;;;;;5112637;27;20092;-78
2022/06/07 11:18:09;;;;;;;3.00;0.90;;;16.80;99.90;;;;;;5125419;28;20087;-80
2022/06/07 11:20:44;;;;;;;6.35;1.20;;;16.50;99.90;;;;;;5113485;28;20046;-77
2022/06/07 11:23:23;;;;;;;5.13;1.23;;;16.40;99.90;;;;;;5113053;28;20478;-79
2022/06/07 11:26:04;;;;;;;3.38;1.15;;;16.50;99.90;;;;;;5147900;27;20050;-78
2022/06/07 11:28:43;;;;;;;2.65;1.10;;;16.40;99.90;;;;;;5135239;27;20108;-77
2022/06/07 11:31:15;;;;;;;3.65;1.10;;;16.30;99.90;;;;;;5133719;27;20095;-76
2022/06/07 11:33:47;;;;;;;3.20;1.00;;;16.30;99.90;;;;;;5152306;27;20482;-77
2022/06/07 11:36:12;;;;;;;5.10;1.10;;;16.30;99.90;;;;;;5152212;27;20042;-76
2022/06/07 11:38:53;;;;;;;6.13;1.40;;;16.20;99.90;;;;;;5132598;27;20046;-75
2022/06/07 11:41:37;;;;;;;3.80;1.02;;;16.30;99.90;;;;;;5134733;27;20046;-75
2022/06/07 11:44:11;;;;;;;4.18;1.20;;;16.30;99.90;;;;;;5124201;28;20485;-76
2022/06/07 11:46:57;;;;;;;6.05;1.17;;;16.70;99.90;;;;;;5131917;27;20057;-75
2022/06/07 11:49:23;;;;;;;2.93;1.00;;;17.00;99.90;;;;;;5152569;27;20038;-75
2022/06/07 11:51:56;;;;;;;5.72;1.25;;;17.40;99.90;;;;;;5115600;27;20062;-75
2022/06/07 11:54:29;;;;;;;3.17;1.00;;;17.80;99.90;;;;;;5131833;28;20039;-75
2022/06/07 11:57:02;;;;;;;4.03;0.98;;;18.20;99.90;;;;;;5112620;28;20047;-76
2022/06/07 11:59:32;;;;;;;3.38;0.90;;;18.50;99.90;;;;;;5125572;27;20045;-76
2022/06/07 12:02:01;;;;;;;3.03;0.85;;;18.60;99.90;;;;;;5152668;27;20054;-75
2022/06/07 12:04:59;;;;;;;3.08;0.95;;;19.00;99.90;;;;;;5119290;28;20391;-75
2022/06/07 12:07:48;;;;;;;4.05;1.20;;;18.70;99.90;;;;;;5151452;27;20505;-77
2022/06/07 12:10:22;;;;;;;4.90;1.50;;;18.40;99.90;;;;;;5119567;28;20342;-78
2022/06/07 12:12:53;;;;;;;3.65;1.33;;;18.30;99.90;;;;;;5113150;28;20047;-75
2022/06/07 12:15:28;;;;;;;3.25;1.10;;;18.20;99.90;;;;;;5113427;28;20043;-76
2022/06/07 12:18:03;;;;;;;5.63;1.20;;;18.00;99.90;;;;;;5112901;28;20051;-76
2022/06/07 12:20:37;;;;;;;5.57;2.30;;;17.70;99.90;;;;;;5113404;27;20122;-76
2022/06/07 12:23:23;;;;;;;4.10;1.25;;;17.70;99.90;;;;;;5134643;27;20117;-75
2022/06/07 12:25:58;;;;;;;6.63;1.83;;;17.60;99.90;;;;;;5114945;27;20046;-75
2022/06/07 12:28:30;;;;;;;5.68;1.40;;;17.60;99.90;;;;;;5116886;27;20087;-75
2022/06/07 12:30:57;;;;;;;7.63;2.25;;;17.90;99.90;;;;;;5117358;27;20576;-75
2022/06/07 12:33:29;;;;;;;5.38;1.30;;;18.10;99.90;;;;;;5116319;27;20081;-76
2022/06/07 12:36:01;;;;;;;5.15;1.35;;;18.10;99.90;;;;;;5136060;27;20047;-76
2022/06/07 12:38:28;;;;;;;3.92;1.33;;;18.10;99.90;;;;;;5142738;27;20039;-75
2022/06/07 12:41:04;;;;;;;4.72;1.27;;;17.80;99.90;;;;;;5156534;27;20031;-75
2022/06/07 12:43:33;;;;;;;6.40;2.58;;;17.90;99.90;;;;;;5137683;27;20154;-75
2022/06/07 12:46:04;;;;;;;6.78;1.30;;;18.00;99.90;;;;;;5136816;27;20059;-75
2022/06/07 12:48:49;;;;;;;4.25;1.20;;;18.10;99.90;;;;;;5155830;27;20078;-75
2022/06/07 12:51:36;;;;;;;3.85;1.30;;;18.30;99.90;;;;;;5116590;27;20043;-75
2022/06/07 12:54:18;;;;;;;5.47;1.33;;;18.20;99.90;;;;;;5115876;27;20042;-75
2022/06/07 12:56:46;;;;;;;4.47;1.23;;;18.00;99.90;;;;;;5135354;27;20051;-75
2022/06/07 12:59:35;;;;;;;4.57;1.15;;;18.10;99.90;;;;;;5117439;27;20126;-76
2022/06/07 13:02:13;;;;;;;6.22;1.20;;;18.10;99.90;;;;;;5116700;27;20047;-75
2022/06/07 13:04:49;;;;;;;3.10;1.10;;;18.20;99.90;;;;;;5116592;27;20487;-75
2022/06/07 13:07:30;;;;;;;5.15;1.08;;;18.30;99.90;;;;;;5134204;27;20079;-75
2022/06/07 13:10:06;;;;;;;4.75;1.23;;;18.30;99.90;;;;;;5135290;27;20053;-75
2022/06/07 13:12:35;;;;;;;3.57;1.17;;;18.20;99.90;;;;;;5134784;27;20118;-76
2022/06/07 13:15:16;;;;;;;2.92;1.05;;;17.80;99.90;;;;;;5135298;27;20114;-75
2022/06/07 13:17:54;;;;;;;6.00;1.40;;;17.80;99.90;;;;;;5116636;27;20047;-75
2022/06/07 13:20:37;;;;;;;5.70;1.17;;;17.80;99.90;;;;;;5116256;27;20066;-74
2022/06/07 13:23:31;;;;;;;3.45;1.10;;;18.00;99.90;;;;;;5116227;27;20046;-75
2022/06/07 13:26:23;;;;;;;4.70;0.90;;;18.00;99.90;;;;;;5135071;27;20144;-75
2022/06/07 13:29:22;;;;;;;4.03;1.20;;;18.10;99.90;;;;;;5133806;27;20047;-76
2022/06/07 13:31:48;;;;;;;2.10;1.00;;;18.30;99.90;;;;;;5116430;27;20051;-76
2022/06/07 13:34:27;;;;;;;6.15;1.33;;;18.50;99.90;;;;;;5134816;27;20099;-73
2022/06/07 13:37:11;;;;;;;5.32;1.50;;;18.40;99.90;;;;;;5115525;27;20051;-73
2022/06/07 13:40:15;;;;;;;4.70;1.75;;;18.30;99.90;;;;;;5115761;27;20106;-73
2022/06/07 13:42:43;;;;;;;3.47;1.30;;;18.00;99.90;;;;;;5085407;27;20096;-74
2022/06/07 13:45:12;;;;;;;5.15;1.45;;;18.10;99.90;;;;;;5115582;27;20057;-74
2022/06/07 13:47:45;;;;;;;3.90;1.45;;;18.10;99.90;;;;;;5115752;27;20051;-74